Time,TemperatureF,DewpointF,PressureIn,WindDirection,WindDirectionDegrees,WindSpeedMPH,WindSpeedGustMPH,Humidity,HourlyPrecipIn,Conditions,Clouds,dailyrainin,SoftwareType,DateUTC
2013-08-21 00:01:00,63.5,33.1,24.78,South,191,0.0,0.0,32,0.00,,---,0.00,VWS V14.01,2013-08-21 06:01:00,
2013-08-21 00:06:00,63.3,33.8,24.78,South,191,0.0,0.0,33,0.00,,---,0.00,VWS V14.01,2013-08-21 06:06:00,
2013-08-21 00:11:00,62.8,33.3,24.81,South,191,0.0,0.0,33,0.00,,---,0.00,VWS V14.01,2013-08-21 06:11:00,
2013-08-21 00:16:00,62.2,33.5,24.81,SSW,192,0.0,0.0,34,0.00,,---,0.00,VWS V14.01,2013-08-21 06:16:00,
2013-08-21 00:21:00,61.9,33.2,24.81,WSW,251,0.0,0.0,34,0.00,,---,0.00,VWS V14.01,2013-08-21 06:21:00,
2013-08-21 00:26:00,61.5,32.9,24.81,WSW,244,2.7,3.6,34,0.00,,---,0.00,VWS V14.01,2013-08-21 06:26:00,
2013-08-21 00:31:00,61.3,32.8,24.81,West,267,3.1,3.6,34,0.00,,---,0.00,VWS V14.01,2013-08-21 06:31:00,
2013-08-21 00:36:00,61.2,32.6,24.81,West,266,0.0,0.0,34,0.00,,---,0.00,VWS V14.01,2013-08-21 06:36:00,
2013-08-21 00:41:00,61.0,32.4,24.81,West,267,0.0,0.0,34,0.00,,---,0.00,VWS V14.01,2013-08-21 06:41:00,
2013-08-21 00:46:00,61.0,32.4,24.81,WNW,295,3.1,3.1,34,0.00,,---,0.00,VWS V14.01,2013-08-21 06:46:00,
2013-08-21 00:51:00,60.8,32.3,24.81,WNW,294,0.0,0.0,34,0.00,,---,0.00,VWS V14.01,2013-08-21 06:51:00,
2013-08-21 00:56:00,60.8,32.3,24.81,WSW,249,2.7,3.1,34,0.00,,---,0.00,VWS V14.01,2013-08-21 06:56:00,
2013-08-21 01:01:00,60.6,32.8,24.81,SW,220,0.0,0.0,35,0.00,,---,0.00,VWS V14.01,2013-08-21 07:01:00,
2013-08-21 01:06:00,60.1,32.4,24.81,WSW,248,3.1,4.0,35,0.00,,---,0.00,VWS V14.01,2013-08-21 07:06:00,
2013-08-21 01:11:00,59.7,32.0,24.81,West,264,0.0,0.0,35,0.00,,---,0.00,VWS V14.01,2013-08-21 07:11:00,
2013-08-21 01:16:00,59.7,32.0,24.81,West,264,0.0,0.0,35,0.00,,---,0.00,VWS V14.01,2013-08-21 07:16:00,
2013-08-21 01:21:00,59.2,31.6,24.81,SW,215,0.0,0.0,35,0.00,,---,0.00,VWS V14.01,2013-08-21 07:21:00,
2013-08-21 01:26:00,58.8,31.2,24.83,West,268,3.6,3.6,35,0.00,,---,0.00,VWS V14.01,2013-08-21 07:26:00,
2013-08-21 01:31:00,58.6,31.1,24.83,West,259,3.6,3.6,35,0.00,,---,0.00,VWS V14.01,2013-08-21 07:31:00,
2013-08-21 01:36:00,58.6,31.8,24.83,WSW,241,3.1,3.6,36,0.00,,---,0.00,VWS V14.01,2013-08-21 07:36:00,
2013-08-21 01:41:00,58.8,32.0,24.83,WSW,240,2.7,2.7,36,0.00,,---,0.00,VWS V14.01,2013-08-21 07:41:00,
2013-08-21 01:46:00,58.5,31.6,24.83,WNW,302,3.1,4.9,36,0.00,,---,0.00,VWS V14.01,2013-08-21 07:46:00,
2013-08-21 01:50:00,58.5,31.6,24.83,WNW,283,3.1,3.6,36,0.00,,---,0.00,VWS V14.01,2013-08-21 07:50:00,
2013-08-21 01:55:00,58.1,31.3,24.83,WSW,248,4.0,4.0,36,0.00,,---,0.00,VWS V14.01,2013-08-21 07:55:00,
2013-08-21 02:00:00,58.1,31.3,24.83,WNW,296,2.7,3.6,36,0.00,,---,0.00,VWS V14.01,2013-08-21 08:00:00,
2013-08-21 02:05:00,57.9,31.8,24.83,West,268,4.0,4.9,37,0.00,,---,0.00,VWS V14.01,2013-08-21 08:05:00,
2013-08-21 02:10:00,57.4,31.3,24.83,WSW,254,4.9,4.9,37,0.00,,---,0.00,VWS V14.01,2013-08-21 08:10:00,
2013-08-21 02:15:00,56.8,31.5,24.83,West,261,2.7,3.6,38,0.00,,---,0.00,VWS V14.01,2013-08-21 08:15:00,
2013-08-21 02:20:00,56.3,31.0,24.83,SW,231,2.7,3.6,38,0.00,,---,0.00,VWS V14.01,2013-08-21 08:20:00,
2013-08-21 02:25:00,55.9,31.4,24.83,SW,231,0.0,0.0,39,0.00,,---,0.00,VWS V14.01,2013-08-21 08:25:00,
2013-08-21 02:30:00,55.6,31.7,24.83,SW,231,2.7,3.1,40,0.00,,---,0.00,VWS V14.01,2013-08-21 08:30:00,
2013-08-21 02:35:00,55.6,31.7,24.83,West,265,3.1,4.0,40,0.00,,---,0.00,VWS V14.01,2013-08-21 08:35:00,
2013-08-21 02:40:00,55.9,32.0,24.83,WSW,255,5.4,5.4,40,0.00,,---,0.00,VWS V14.01,2013-08-21 08:40:00,
2013-08-21 02:45:00,56.1,31.5,24.83,WSW,247,4.5,5.4,39,0.00,,---,0.00,VWS V14.01,2013-08-21 08:45:00,
2013-08-21 02:50:00,56.3,31.7,24.83,NW,314,6.3,8.7,39,0.00,,---,0.00,VWS V14.01,2013-08-21 08:50:00,
2013-08-21 02:55:00,56.3,31.7,24.83,SW,233,4.9,8.1,39,0.00,,---,0.00,VWS V14.01,2013-08-21 08:55:00,
2013-08-21 03:00:00,55.9,31.4,24.83,West,274,5.4,5.4,39,0.00,,---,0.00,VWS V14.01,2013-08-21 09:00:00,
2013-08-21 03:05:00,55.8,31.2,24.83,West,270,6.3,6.3,39,0.00,,---,0.00,VWS V14.01,2013-08-21 09:05:00,
2013-08-21 03:10:00,55.4,30.9,24.83,SW,230,3.6,5.8,39,0.00,,---,0.00,VWS V14.01,2013-08-21 09:10:00,
2013-08-21 03:15:00,55.2,31.3,24.83,SW,231,2.7,5.4,40,0.00,,---,0.00,VWS V14.01,2013-08-21 09:15:00,
2013-08-21 03:20:00,55.0,31.2,24.83,West,273,5.4,5.8,40,0.00,,---,0.00,VWS V14.01,2013-08-21 09:20:00,
2013-08-21 03:25:00,54.9,31.0,24.83,WSW,251,6.3,6.3,40,0.00,,---,0.00,VWS V14.01,2013-08-21 09:25:00,
2013-08-21 03:30:00,54.7,31.5,24.83,WSW,245,6.3,6.3,41,0.00,,---,0.00,VWS V14.01,2013-08-21 09:30:00,
2013-08-21 03:35:00,54.7,31.5,24.83,West,275,5.8,5.8,41,0.00,,---,0.00,VWS V14.01,2013-08-21 09:35:00,
2013-08-21 03:40:00,54.5,31.3,24.83,West,262,4.0,5.4,41,0.00,,---,0.00,VWS V14.01,2013-08-21 09:40:00,
2013-08-21 03:45:00,54.5,31.3,24.83,WSW,244,4.0,5.4,41,0.00,,---,0.00,VWS V14.01,2013-08-21 09:45:00,
2013-08-21 03:50:00,54.3,31.1,24.83,West,273,6.3,6.3,41,0.00,,---,0.00,VWS V14.01,2013-08-21 09:50:00,
2013-08-21 03:55:00,54.0,31.4,24.83,West,278,5.4,6.3,42,0.00,,---,0.00,VWS V14.01,2013-08-21 09:55:00,
2013-08-21 04:00:00,53.6,31.1,24.83,SW,234,4.9,8.3,42,0.00,,---,0.00,VWS V14.01,2013-08-21 10:00:00,
2013-08-21 04:05:00,53.6,31.1,24.83,West,265,8.1,8.1,42,0.00,,---,0.00,VWS V14.01,2013-08-21 10:05:00,
2013-08-21 04:10:00,53.2,31.3,24.83,West,269,5.8,5.8,43,0.00,,---,0.00,VWS V14.01,2013-08-21 10:10:00,
2013-08-21 04:15:00,53.1,31.7,24.83,West,270,6.3,7.6,44,0.00,,---,0.00,VWS V14.01,2013-08-21 10:15:00,
2013-08-21 04:20:00,53.1,31.7,24.83,WSW,243,5.4,5.8,44,0.00,,---,0.00,VWS V14.01,2013-08-21 10:20:00,
2013-08-21 04:25:00,52.9,31.6,24.83,WSW,256,5.8,8.1,44,0.00,,---,0.00,VWS V14.01,2013-08-21 10:25:00,
2013-08-21 04:30:00,52.5,31.2,24.83,WSW,252,8.1,8.1,44,0.00,,---,0.00,VWS V14.01,2013-08-21 10:30:00,
2013-08-21 04:35:00,52.2,31.5,24.83,WSW,257,6.7,6.7,45,0.00,,---,0.00,VWS V14.01,2013-08-21 10:35:00,
2013-08-21 04:40:00,51.8,31.7,24.83,WSW,248,8.3,8.3,46,0.00,,---,0.00,VWS V14.01,2013-08-21 10:40:00,
2013-08-21 04:45:00,51.6,31.5,24.83,West,272,9.2,9.2,46,0.00,,---,0.00,VWS V14.01,2013-08-21 10:45:00,
2013-08-21 04:50:00,51.6,31.5,24.83,WSW,255,8.7,8.7,46,0.00,,---,0.00,VWS V14.01,2013-08-21 10:50:00,
2013-08-21 04:55:00,51.6,31.5,24.83,WSW,254,8.1,8.1,46,0.00,,---,0.00,VWS V14.01,2013-08-21 10:55:00,
2013-08-21 05:00:00,51.4,31.9,24.83,SW,218,8.3,8.3,47,0.00,,---,0.00,VWS V14.01,2013-08-21 11:00:00,
2013-08-21 05:05:00,51.4,31.9,24.83,WNW,282,8.3,8.3,47,0.00,,---,0.00,VWS V14.01,2013-08-21 11:05:00,
2013-08-21 05:10:00,51.3,31.7,24.83,West,265,5.4,7.6,47,0.00,,---,0.00,VWS V14.01,2013-08-21 11:10:00,
2013-08-21 05:15:00,51.1,31.6,24.83,WSW,244,7.6,8.3,47,0.00,,---,0.00,VWS V14.01,2013-08-21 11:15:00,
2013-08-21 05:20:00,50.9,31.4,24.83,WSW,256,7.6,7.6,47,0.00,,---,0.00,VWS V14.01,2013-08-21 11:20:00,
2013-08-21 05:25:00,51.1,31.6,24.83,West,268,8.1,8.7,47,0.00,,---,0.00,VWS V14.01,2013-08-21 11:25:00,
2013-08-21 05:30:00,51.3,31.7,24.83,WSW,254,8.3,8.3,47,0.00,,---,0.00,VWS V14.01,2013-08-21 11:30:00,
2013-08-21 05:35:00,51.1,31.6,24.83,WSW,249,6.3,6.3,47,0.00,,---,0.00,VWS V14.01,2013-08-21 11:35:00,
2013-08-21 05:40:00,50.4,31.4,24.86,West,260,7.2,7.2,48,0.00,,---,0.00,VWS V14.01,2013-08-21 11:40:00,
2013-08-21 05:45:00,49.8,31.4,24.86,West,262,7.6,7.6,49,0.00,,---,0.00,VWS V14.01,2013-08-21 11:45:00,
2013-08-21 05:50:00,49.5,31.1,24.86,West,273,7.6,8.7,49,0.00,,---,0.00,VWS V14.01,2013-08-21 11:50:00,
2013-08-21 05:55:00,49.6,31.3,24.86,West,267,6.3,8.1,49,0.00,,---,0.00,VWS V14.01,2013-08-21 11:55:00,
2013-08-21 06:00:00,49.8,31.4,24.83,West,269,5.4,5.8,49,0.00,,---,0.00,VWS V14.01,2013-08-21 12:00:00,
2013-08-21 06:05:00,50.0,31.1,24.83,WSW,253,6.3,6.3,48,0.00,,---,0.00,VWS V14.01,2013-08-21 12:05:00,
2013-08-21 06:10:00,49.8,31.4,24.83,West,259,8.1,8.1,49,0.00,,---,0.00,VWS V14.01,2013-08-21 12:10:00,
2013-08-21 06:15:00,50.0,31.1,24.83,WSW,257,5.8,6.3,48,0.00,,---,0.00,VWS V14.01,2013-08-21 12:15:00,
2013-08-21 06:20:00,50.2,31.3,24.83,West,266,7.6,7.6,48,0.00,,---,0.00,VWS V14.01,2013-08-21 12:20:00,
2013-08-21 06:25:00,50.0,31.1,24.83,WSW,256,10.5,10.5,48,0.00,,---,0.00,VWS V14.01,2013-08-21 12:25:00,
2013-08-21 06:30:00,49.8,31.4,24.83,West,262,8.1,8.1,49,0.00,,---,0.00,VWS V14.01,2013-08-21 12:30:00,
2013-08-21 06:35:00,49.6,31.3,24.83,NW,304,6.3,6.3,49,0.00,,---,0.00,VWS V14.01,2013-08-21 12:35:00,
2013-08-21 06:40:00,49.1,30.8,24.83,WNW,296,8.1,8.1,49,0.00,,---,0.00,VWS V14.01,2013-08-21 12:40:00,
2013-08-21 06:45:00,48.7,31.0,24.83,WSW,258,8.3,8.3,50,0.00,,---,0.00,VWS V14.01,2013-08-21 12:45:00,
2013-08-21 06:50:00,48.6,30.8,24.83,WSW,240,8.1,8.1,50,0.00,,---,0.00,VWS V14.01,2013-08-21 12:50:00,
2013-08-21 06:55:00,48.2,30.5,24.86,WSW,241,8.3,10.1,50,0.00,,---,0.00,VWS V14.01,2013-08-21 12:55:00,
2013-08-21 07:00:00,48.2,30.9,24.86,WSW,258,8.3,8.3,51,0.00,,---,0.00,VWS V14.01,2013-08-21 13:00:00,
2013-08-21 07:05:00,48.2,30.9,24.86,WNW,288,6.3,6.3,51,0.00,,---,0.00,VWS V14.01,2013-08-21 13:05:00,
2013-08-21 07:10:00,48.0,30.8,24.86,WSW,256,10.1,10.1,51,0.00,,---,0.00,VWS V14.01,2013-08-21 13:10:00,
2013-08-21 07:15:00,48.2,30.9,24.86,West,265,8.3,8.3,51,0.00,,---,0.00,VWS V14.01,2013-08-21 13:15:00,
2013-08-21 07:20:00,48.7,31.0,24.86,WSW,253,8.3,12.3,50,0.00,,---,0.00,VWS V14.01,2013-08-21 13:20:00,
2013-08-21 07:25:00,48.9,31.1,24.86,West,268,7.6,7.6,50,0.00,,---,0.00,VWS V14.01,2013-08-21 13:25:00,
2013-08-21 07:30:00,49.3,31.0,24.86,West,265,6.3,9.2,49,0.00,,---,0.00,VWS V14.01,2013-08-21 13:30:00,
2013-08-21 07:35:00,49.5,31.1,24.86,West,273,5.8,5.8,49,0.00,,---,0.00,VWS V14.01,2013-08-21 13:35:00,
2013-08-21 07:40:00,49.5,31.1,24.86,SW,216,6.3,6.3,49,0.00,,---,0.00,VWS V14.01,2013-08-21 13:40:00,
2013-08-21 07:45:00,49.6,31.3,24.86,WSW,249,7.2,10.5,49,0.00,,---,0.00,VWS V14.01,2013-08-21 13:45:00,
2013-08-21 07:50:00,49.8,31.4,24.86,West,269,7.6,8.1,49,0.00,,---,0.00,VWS V14.01,2013-08-21 13:50:00,
2013-08-21 07:55:00,49.8,31.4,24.86,West,264,8.1,8.3,49,0.00,,---,0.00,VWS V14.01,2013-08-21 13:55:00,
2013-08-21 08:00:00,50.2,31.3,24.86,WSW,246,8.1,8.1,48,0.00,,---,0.00,VWS V14.01,2013-08-21 14:00:00,
2013-08-21 08:05:00,50.5,31.6,24.86,WSW,252,10.1,10.1,48,0.00,,---,0.00,VWS V14.01,2013-08-21 14:05:00,
2013-08-21 08:10:00,51.1,31.6,24.86,SW,236,4.5,10.1,47,0.00,,---,0.00,VWS V14.01,2013-08-21 14:10:00,
2013-08-21 08:15:00,51.6,32.1,24.86,SW,233,5.8,8.3,47,0.00,,---,0.00,VWS V14.01,2013-08-21 14:15:00,
2013-08-21 08:20:00,52.0,31.9,24.86,WSW,238,8.1,8.7,46,0.00,,---,0.00,VWS V14.01,2013-08-21 14:20:00,
2013-08-21 08:25:00,52.5,32.3,24.86,West,259,4.9,6.3,46,0.00,,---,0.00,VWS V14.01,2013-08-21 14:25:00,
2013-08-21 08:30:00,53.2,32.5,24.86,WSW,244,5.8,7.6,45,0.00,,---,0.00,VWS V14.01,2013-08-21 14:30:00,
2013-08-21 08:35:00,54.1,32.7,24.86,WSW,238,4.0,5.4,44,0.00,,---,0.00,VWS V14.01,2013-08-21 14:35:00,
2013-08-21 08:40:00,55.0,32.4,24.86,WNW,303,2.7,4.0,42,0.00,,---,0.00,VWS V14.01,2013-08-21 14:40:00,
2013-08-21 08:45:00,55.6,32.3,24.86,WNW,292,3.1,4.9,41,0.00,,---,0.00,VWS V14.01,2013-08-21 14:45:00,
2013-08-21 08:50:00,55.9,32.6,24.86,West,274,3.6,3.6,41,0.00,,---,0.00,VWS V14.01,2013-08-21 14:50:00,
2013-08-21 08:55:00,56.3,32.9,24.86,West,270,3.6,5.4,41,0.00,,---,0.00,VWS V14.01,2013-08-21 14:55:00,
2013-08-21 09:00:00,56.7,33.2,24.86,West,259,3.6,4.0,41,0.00,,---,0.00,VWS V14.01,2013-08-21 15:00:00,
2013-08-21 09:05:00,57.4,33.3,24.86,WSW,251,0.0,3.1,40,0.00,,---,0.00,VWS V14.01,2013-08-21 15:05:00,
2013-08-21 09:10:00,57.9,33.8,24.86,West,266,0.0,0.0,40,0.00,,---,0.00,VWS V14.01,2013-08-21 15:10:00,
2013-08-21 09:15:00,58.5,33.6,24.86,West,266,0.0,0.0,39,0.00,,---,0.00,VWS V14.01,2013-08-21 15:15:00,
2013-08-21 09:20:00,59.0,33.5,24.86,West,266,0.0,0.0,38,0.00,,---,0.00,VWS V14.01,2013-08-21 15:20:00,
2013-08-21 09:25:00,59.7,34.1,24.86,NNW,345,0.0,0.0,38,0.00,,---,0.00,VWS V14.01,2013-08-21 15:25:00,
2013-08-21 09:30:00,60.8,34.4,24.83,North,5,0.0,0.0,37,0.00,,---,0.00,VWS V14.01,2013-08-21 15:30:00,
2013-08-21 09:35:00,61.3,34.2,24.83,North,11,0.0,0.0,36,0.00,,---,0.00,VWS V14.01,2013-08-21 15:35:00,
2013-08-21 09:40:00,62.2,35.0,24.83,NNE,14,0.0,0.0,36,0.00,,---,0.00,VWS V14.01,2013-08-21 15:40:00,
2013-08-21 09:45:00,63.3,35.2,24.86,ENE,59,0.0,2.2,35,0.00,,---,0.00,VWS V14.01,2013-08-21 15:45:00,
2013-08-21 09:49:00,64.2,35.3,24.86,ENE,57,0.0,0.0,34,0.00,,---,0.00,VWS V14.01,2013-08-21 15:49:00,
2013-08-21 09:54:00,64.9,35.9,24.86,ENE,61,0.0,2.2,34,0.00,,---,0.00,VWS V14.01,2013-08-21 15:54:00,
2013-08-21 09:59:00,65.5,35.6,24.86,ENE,61,0.0,0.0,33,0.00,,---,0.00,VWS V14.01,2013-08-21 15:59:00,
2013-08-21 10:04:00,66.2,36.3,24.86,ENE,57,2.2,2.2,33,0.00,,---,0.00,VWS V14.01,2013-08-21 16:04:00,
2013-08-21 10:09:00,66.6,34.2,24.86,East,88,2.2,3.6,30,0.00,,---,0.00,VWS V14.01,2013-08-21 16:09:00,
2013-08-21 10:14:00,66.4,34.9,24.86,ENE,57,2.7,3.1,31,0.00,,---,0.00,VWS V14.01,2013-08-21 16:14:00,
2013-08-21 10:19:00,66.7,35.2,24.86,NE,53,0.0,0.0,31,0.00,,---,0.00,VWS V14.01,2013-08-21 16:19:00,
2013-08-21 10:24:00,67.1,34.7,24.86,ENE,63,3.1,4.0,30,0.00,,---,0.00,VWS V14.01,2013-08-21 16:24:00,
2013-08-21 10:29:00,68.0,34.6,24.86,ENE,66,2.2,3.6,29,0.00,,---,0.00,VWS V14.01,2013-08-21 16:29:00,
2013-08-21 10:34:00,68.7,36.1,24.86,ENE,71,3.1,4.0,30,0.00,,---,0.00,VWS V14.01,2013-08-21 16:34:00,
2013-08-21 10:39:00,69.3,34.8,24.86,NNE,28,3.6,4.0,28,0.00,,---,0.00,VWS V14.01,2013-08-21 16:39:00,
2013-08-21 10:44:00,70.2,34.7,24.86,NE,46,0.0,0.0,27,0.00,,---,0.00,VWS V14.01,2013-08-21 16:44:00,
2013-08-21 10:49:00,70.3,34.8,24.86,NE,45,3.1,4.0,27,0.00,,---,0.00,VWS V14.01,2013-08-21 16:49:00,
2013-08-21 10:54:00,70.3,33.9,24.86,East,92,4.0,4.0,26,0.00,,---,0.00,VWS V14.01,2013-08-21 16:54:00,
2013-08-21 10:59:00,70.3,34.8,24.86,NE,47,5.4,5.4,27,0.00,,---,0.00,VWS V14.01,2013-08-21 16:59:00,
2013-08-21 11:04:00,70.5,35.0,24.86,ENE,63,4.9,5.8,27,0.00,,---,0.00,VWS V14.01,2013-08-21 17:04:00,
2013-08-21 11:09:00,70.9,35.3,24.86,NNE,29,0.0,0.0,27,0.00,,---,0.00,VWS V14.01,2013-08-21 17:09:00,
2013-08-21 11:14:00,71.4,35.7,24.86,East,99,4.9,6.3,27,0.00,,---,0.00,VWS V14.01,2013-08-21 17:14:00,
2013-08-21 11:19:00,72.1,35.4,24.86,ENE,69,3.1,3.1,26,0.00,,---,0.00,VWS V14.01,2013-08-21 17:19:00,
2013-08-21 11:24:00,72.7,34.9,24.86,ENE,75,3.1,4.9,25,0.00,,---,0.00,VWS V14.01,2013-08-21 17:24:00,
2013-08-21 11:29:00,73.2,34.3,24.83,NNE,15,3.6,4.0,24,0.00,,---,0.00,VWS V14.01,2013-08-21 17:29:00,
2013-08-21 11:34:00,73.6,34.6,24.83,NE,46,0.0,0.0,24,0.00,,---,0.00,VWS V14.01,2013-08-21 17:34:00,
2013-08-21 11:39:00,72.5,33.7,24.83,SW,218,3.6,4.0,24,0.00,,---,0.00,VWS V14.01,2013-08-21 17:39:00,
2013-08-21 11:44:00,71.4,33.8,24.83,West,263,2.7,4.0,25,0.00,,---,0.00,VWS V14.01,2013-08-21 17:44:00,
2013-08-21 11:49:00,71.1,33.5,24.83,NE,56,3.6,3.6,25,0.00,,---,0.00,VWS V14.01,2013-08-21 17:49:00,
2013-08-21 11:54:00,71.4,33.8,24.83,ENE,65,5.8,5.8,25,0.00,,---,0.00,VWS V14.01,2013-08-21 17:54:00,
2013-08-21 11:59:00,72.5,33.7,24.83,NNE,28,3.1,3.6,24,0.00,,---,0.00,VWS V14.01,2013-08-21 17:59:00,
2013-08-21 12:04:00,73.2,34.3,24.83,North,11,0.0,0.0,24,0.00,,---,0.00,VWS V14.01,2013-08-21 18:04:00,
2013-08-21 12:09:00,73.8,34.8,24.83,SSE,155,0.0,0.0,24,0.00,,---,0.00,VWS V14.01,2013-08-21 18:09:00,
2013-08-21 12:14:00,74.5,35.4,24.83,East,97,0.0,2.7,24,0.00,,---,0.00,VWS V14.01,2013-08-21 18:14:00,
2013-08-21 12:19:00,75.2,34.9,24.83,ENE,65,5.4,5.4,23,0.00,,---,0.00,VWS V14.01,2013-08-21 18:19:00,
2013-08-21 12:24:00,76.3,34.7,24.83,SE,129,4.0,4.9,22,0.00,,---,0.00,VWS V14.01,2013-08-21 18:24:00,
2013-08-21 12:29:00,75.9,35.5,24.83,ESE,109,2.2,2.7,23,0.00,,---,0.00,VWS V14.01,2013-08-21 18:29:00,
2013-08-21 12:34:00,76.3,34.7,24.83,NE,43,0.0,0.0,22,0.00,,---,0.00,VWS V14.01,2013-08-21 18:34:00,
2013-08-21 12:39:00,76.8,36.2,24.83,NE,49,0.0,0.0,23,0.00,,---,0.00,VWS V14.01,2013-08-21 18:39:00,
2013-08-21 12:44:00,77.7,35.9,24.83,ENE,72,8.7,8.7,22,0.00,,---,0.00,VWS V14.01,2013-08-21 18:44:00,
2013-08-21 12:49:00,78.1,36.2,24.83,NNE,31,2.7,2.7,22,0.00,,---,0.00,VWS V14.01,2013-08-21 18:49:00,
2013-08-21 12:54:00,76.6,35.0,24.83,NW,307,0.0,2.2,22,0.00,,---,0.00,VWS V14.01,2013-08-21 18:54:00,
2013-08-21 12:59:00,77.0,35.3,24.83,NE,44,3.6,5.4,22,0.00,,---,0.00,VWS V14.01,2013-08-21 18:59:00,
2013-08-21 13:04:00,77.9,36.0,24.83,ENE,77,5.8,5.8,22,0.00,,---,0.00,VWS V14.01,2013-08-21 19:04:00,
2013-08-21 13:09:00,78.8,35.6,24.83,East,79,7.6,7.6,21,0.00,,---,0.00,VWS V14.01,2013-08-21 19:09:00,
2013-08-21 13:14:00,78.3,36.3,24.83,ENE,61,0.0,0.0,22,0.00,,---,0.00,VWS V14.01,2013-08-21 19:14:00,
2013-08-21 13:19:00,79.0,35.8,24.83,East,98,5.4,5.4,21,0.00,,---,0.00,VWS V14.01,2013-08-21 19:19:00,
2013-08-21 13:24:00,79.9,36.5,24.83,NNE,18,0.0,4.0,21,0.00,,---,0.00,VWS V14.01,2013-08-21 19:24:00,
2013-08-21 13:29:00,80.2,36.8,24.81,ENE,76,5.4,5.4,21,0.00,,---,0.00,VWS V14.01,2013-08-21 19:29:00,
2013-08-21 13:34:00,79.0,35.8,24.81,SE,139,5.8,5.8,21,0.00,,---,0.00,VWS V14.01,2013-08-21 19:34:00,
2013-08-21 13:39:00,77.9,34.9,24.81,ESE,112,2.7,4.0,21,0.00,,---,0.00,VWS V14.01,2013-08-21 19:39:00,
2013-08-21 13:44:00,78.8,35.6,24.81,ENE,59,7.6,7.6,21,0.00,,---,0.00,VWS V14.01,2013-08-21 19:44:00,
2013-08-21 13:49:00,79.9,36.5,24.81,NE,50,3.1,5.8,21,0.00,,---,0.00,VWS V14.01,2013-08-21 19:49:00,
2013-08-21 13:54:00,80.1,36.7,24.81,ESE,114,2.7,2.7,21,0.00,,---,0.00,VWS V14.01,2013-08-21 19:54:00,
2013-08-21 13:59:00,79.3,36.0,24.81,North,350,0.0,0.0,21,0.00,,---,0.00,VWS V14.01,2013-08-21 19:59:00,
2013-08-21 14:04:00,80.1,36.7,24.81,NNE,24,3.6,4.9,21,0.00,,---,0.00,VWS V14.01,2013-08-21 20:04:00,
2013-08-21 14:09:00,81.0,36.2,24.81,East,97,0.0,0.0,20,0.00,,---,0.00,VWS V14.01,2013-08-21 20:09:00,
2013-08-21 14:14:00,79.7,35.1,24.81,SSE,166,3.6,3.6,20,0.00,,---,0.00,VWS V14.01,2013-08-21 20:14:00,
2013-08-21 14:19:00,79.5,36.2,24.81,NE,49,3.1,3.1,21,0.00,,---,0.00,VWS V14.01,2013-08-21 20:19:00,
2013-08-21 14:24:00,81.1,37.5,24.81,ENE,58,2.2,3.6,21,0.00,,---,0.00,VWS V14.01,2013-08-21 20:24:00,
2013-08-21 14:29:00,82.6,37.5,24.81,NNE,27,3.1,3.6,20,0.00,,---,0.00,VWS V14.01,2013-08-21 20:29:00,
2013-08-21 14:34:00,82.4,37.3,24.81,NE,54,3.1,4.0,20,0.00,,---,0.00,VWS V14.01,2013-08-21 20:34:00,
2013-08-21 14:39:00,83.1,37.9,24.81,ENE,77,4.9,4.9,20,0.00,,---,0.00,VWS V14.01,2013-08-21 20:39:00,
2013-08-21 14:44:00,84.0,38.7,24.81,NE,48,3.1,3.6,20,0.00,,---,0.00,VWS V14.01,2013-08-21 20:44:00,
2013-08-21 14:49:00,84.6,37.8,24.81,NE,46,4.0,4.0,19,0.00,,---,0.00,VWS V14.01,2013-08-21 20:49:00,
2013-08-21 14:54:00,84.9,38.1,24.81,NE,41,0.0,0.0,19,0.00,,---,0.00,VWS V14.01,2013-08-21 20:54:00,
2013-08-21 14:59:00,84.2,37.5,24.81,NE,46,4.0,4.0,19,0.00,,---,0.00,VWS V14.01,2013-08-21 20:59:00,
2013-08-21 15:04:00,84.4,37.7,24.81,East,86,0.0,0.0,19,0.00,,---,0.00,VWS V14.01,2013-08-21 21:04:00,
2013-08-21 15:09:00,84.2,37.5,24.81,NE,35,3.6,4.0,19,0.00,,---,0.00,VWS V14.01,2013-08-21 21:09:00,
2013-08-21 15:14:00,84.4,37.7,24.78,NE,38,4.0,4.0,19,0.00,,---,0.00,VWS V14.01,2013-08-21 21:14:00,
2013-08-21 15:19:00,84.9,38.1,24.78,East,84,4.0,4.0,19,0.00,,---,0.00,VWS V14.01,2013-08-21 21:19:00,
2013-08-21 15:24:00,85.1,38.2,24.78,NNE,27,2.2,4.9,19,0.00,,---,0.00,VWS V14.01,2013-08-21 21:24:00,
2013-08-21 15:29:00,85.6,38.7,24.78,NE,54,5.8,5.8,19,0.00,,---,0.00,VWS V14.01,2013-08-21 21:29:00,
2013-08-21 15:34:00,86.0,37.6,24.78,NE,45,2.7,4.5,18,0.00,,---,0.00,VWS V14.01,2013-08-21 21:34:00,
2013-08-21 15:39:00,86.4,37.9,24.78,ENE,59,5.4,5.4,18,0.00,,---,0.00,VWS V14.01,2013-08-21 21:39:00,
2013-08-21 15:44:00,86.7,38.2,24.78,NE,45,3.1,8.7,18,0.00,,---,0.00,VWS V14.01,2013-08-21 21:44:00,
2013-08-21 15:49:00,87.1,38.5,24.78,NNE,33,4.0,7.6,18,0.00,,---,0.00,VWS V14.01,2013-08-21 21:49:00,
2013-08-21 15:54:00,86.9,38.3,24.78,NE,43,5.8,8.3,18,0.00,,---,0.00,VWS V14.01,2013-08-21 21:54:00,
2013-08-21 15:59:00,86.2,37.8,24.78,ENE,62,5.8,5.8,18,0.00,,---,0.00,VWS V14.01,2013-08-21 21:59:00,
2013-08-21 16:04:00,85.8,37.5,24.78,NNE,31,3.1,5.8,18,0.00,,---,0.00,VWS V14.01,2013-08-21 22:04:00,
2013-08-21 16:09:00,86.4,37.9,24.78,ENE,72,5.4,5.4,18,0.00,,---,0.00,VWS V14.01,2013-08-21 22:09:00,
2013-08-21 16:14:00,87.1,35.5,24.78,NE,56,4.0,6.3,16,0.00,,---,0.00,VWS V14.01,2013-08-21 22:14:00,
2013-08-21 16:19:00,86.9,35.3,24.78,NE,41,6.3,8.7,16,0.00,,---,0.00,VWS V14.01,2013-08-21 22:19:00,
2013-08-21 16:24:00,86.5,38.0,24.78,NE,56,4.9,6.3,18,0.00,,---,0.00,VWS V14.01,2013-08-21 22:24:00,
2013-08-21 16:28:00,86.2,34.8,24.78,NE,50,2.7,5.8,16,0.00,,---,0.00,VWS V14.01,2013-08-21 22:28:00,
2013-08-21 16:33:00,86.0,34.6,24.78,NE,37,8.1,8.1,16,0.00,,---,0.00,VWS V14.01,2013-08-21 22:33:00,
2013-08-21 16:38:00,86.0,34.6,24.78,NE,49,5.4,6.7,16,0.00,,---,0.00,VWS V14.01,2013-08-21 22:38:00,
2013-08-21 16:43:00,86.5,35.1,24.78,NE,54,3.6,5.8,16,0.00,,---,0.00,VWS V14.01,2013-08-21 22:43:00,
2013-08-21 16:48:00,86.5,35.1,24.78,NE,43,3.1,7.6,16,0.00,,---,0.00,VWS V14.01,2013-08-21 22:48:00,
2013-08-21 16:53:00,86.2,37.8,24.78,NE,47,3.1,4.0,18,0.00,,---,0.00,VWS V14.01,2013-08-21 22:53:00,
2013-08-21 16:58:00,86.2,34.8,24.78,NE,49,5.4,5.4,16,0.00,,---,0.00,VWS V14.01,2013-08-21 22:58:00,
2013-08-21 17:03:00,86.4,34.9,24.78,ENE,72,5.4,7.6,16,0.00,,---,0.00,VWS V14.01,2013-08-21 23:03:00,
2013-08-21 17:08:00,86.4,34.9,24.78,NE,41,2.7,3.6,16,0.00,,---,0.00,VWS V14.01,2013-08-21 23:08:00,
2013-08-21 17:13:00,86.5,35.1,24.78,NE,36,2.7,6.3,16,0.00,,---,0.00,VWS V14.01,2013-08-21 23:13:00,
2013-08-21 17:18:00,86.5,35.1,24.78,ENE,64,6.3,6.3,16,0.00,,---,0.00,VWS V14.01,2013-08-21 23:18:00,
2013-08-21 17:23:00,86.4,34.9,24.78,NNE,21,2.2,3.1,16,0.00,,---,0.00,VWS V14.01,2013-08-21 23:23:00,
2013-08-21 17:28:00,86.0,34.6,24.75,NE,45,3.6,4.5,16,0.00,,---,0.00,VWS V14.01,2013-08-21 23:28:00,
2013-08-21 17:33:00,86.2,34.8,24.75,NE,54,3.6,6.3,16,0.00,,---,0.00,VWS V14.01,2013-08-21 23:33:00,
2013-08-21 17:38:00,86.0,34.6,24.75,NNE,26,5.4,5.4,16,0.00,,---,0.00,VWS V14.01,2013-08-21 23:38:00,
2013-08-21 17:43:00,85.8,34.5,24.75,NE,40,2.7,3.1,16,0.00,,---,0.00,VWS V14.01,2013-08-21 23:43:00,
2013-08-21 17:48:00,85.6,34.3,24.75,NE,55,2.7,4.0,16,0.00,,---,0.00,VWS V14.01,2013-08-21 23:48:00,
2013-08-21 17:53:00,85.6,34.3,24.75,NE,47,4.0,7.6,16,0.00,,---,0.00,VWS V14.01,2013-08-21 23:53:00,
2013-08-21 17:58:00,85.6,34.3,24.75,NNE,33,3.6,3.6,16,0.00,,---,0.00,VWS V14.01,2013-08-21 23:58:00,
2013-08-21 18:03:00,85.8,34.5,24.75,North,3,0.0,2.2,16,0.00,,---,0.00,VWS V14.01,2013-08-22 00:03:00,
2013-08-21 18:08:00,85.5,34.2,24.75,NE,51,3.6,6.3,16,0.00,,---,0.00,VWS V14.01,2013-08-22 00:08:00,
2013-08-21 18:13:00,85.1,33.9,24.75,NE,43,3.6,3.6,16,0.00,,---,0.00,VWS V14.01,2013-08-22 00:13:00,
2013-08-21 18:18:00,84.9,33.8,24.75,NE,52,5.8,5.8,16,0.00,,---,0.00,VWS V14.01,2013-08-22 00:18:00,
2013-08-21 18:23:00,84.7,28.5,24.75,NE,34,5.4,8.1,13,0.00,,---,0.00,VWS V14.01,2013-08-22 00:23:00,
2013-08-21 18:28:00,84.7,28.5,24.75,NE,51,4.0,4.0,13,0.00,,---,0.00,VWS V14.01,2013-08-22 00:28:00,
2013-08-21 18:33:00,84.7,33.6,24.75,ENE,68,0.0,3.6,16,0.00,,---,0.00,VWS V14.01,2013-08-22 00:33:00,
2013-08-21 18:38:00,84.7,33.6,24.75,North,2,0.0,2.7,16,0.00,,---,0.00,VWS V14.01,2013-08-22 00:38:00,
2013-08-21 18:43:00,84.9,33.8,24.75,NE,37,2.2,2.2,16,0.00,,---,0.00,VWS V14.01,2013-08-22 00:43:00,
2013-08-21 18:48:00,84.6,28.4,24.75,NW,324,0.0,0.0,13,0.00,,---,0.00,VWS V14.01,2013-08-22 00:48:00,
2013-08-21 18:53:00,84.6,33.5,24.75,North,3,0.0,0.0,16,0.00,,---,0.00,VWS V14.01,2013-08-22 00:53:00,
2013-08-21 18:58:00,84.4,33.3,24.75,North,349,0.0,0.0,16,0.00,,---,0.00,VWS V14.01,2013-08-22 00:58:00,
2013-08-21 19:03:00,84.0,33.0,24.75,NE,48,2.7,3.1,16,0.00,,---,0.00,VWS V14.01,2013-08-22 01:03:00,
2013-08-21 19:08:00,83.1,32.3,24.75,NE,35,0.0,3.6,16,0.00,,---,0.00,VWS V14.01,2013-08-22 01:08:00,
2013-08-21 19:13:00,82.6,28.6,24.75,NNE,14,0.0,0.0,14,0.00,,---,0.00,VWS V14.01,2013-08-22 01:13:00,
2013-08-21 19:18:00,82.6,28.6,24.75,NE,36,3.6,3.6,14,0.00,,---,0.00,VWS V14.01,2013-08-22 01:18:00,
2013-08-21 19:23:00,82.2,28.3,24.75,NE,35,0.0,0.0,14,0.00,,---,0.00,VWS V14.01,2013-08-22 01:23:00,
2013-08-21 19:28:00,82.4,31.8,24.75,NE,35,0.0,0.0,16,0.00,,---,0.00,VWS V14.01,2013-08-22 01:28:00,
2013-08-21 19:33:00,82.8,32.0,24.75,NE,35,0.0,0.0,16,0.00,,---,0.00,VWS V14.01,2013-08-22 01:33:00,
2013-08-21 19:38:00,83.1,32.3,24.75,NE,35,0.0,0.0,16,0.00,,---,0.00,VWS V14.01,2013-08-22 01:38:00,
2013-08-21 19:43:00,82.9,28.9,24.75,NE,35,0.0,0.0,14,0.00,,---,0.00,VWS V14.01,2013-08-22 01:43:00,
2013-08-21 19:48:00,82.0,33.0,24.75,NE,35,0.0,0.0,17,0.00,,---,0.00,VWS V14.01,2013-08-22 01:48:00,
2013-08-21 19:53:00,81.1,32.2,24.75,NE,35,0.0,0.0,17,0.00,,---,0.00,VWS V14.01,2013-08-22 01:53:00,
2013-08-21 19:58:00,79.7,31.1,24.75,NE,35,0.0,0.0,17,0.00,,---,0.00,VWS V14.01,2013-08-22 01:58:00,
2013-08-21 20:03:00,78.4,31.5,24.75,NE,35,0.0,0.0,18,0.00,,---,0.00,VWS V14.01,2013-08-22 02:03:00,
2013-08-21 20:08:00,77.2,30.4,24.75,NE,35,0.0,0.0,18,0.00,,---,0.00,VWS V14.01,2013-08-22 02:08:00,
2013-08-21 20:13:00,76.1,29.6,24.78,NE,35,0.0,0.0,18,0.00,,---,0.00,VWS V14.01,2013-08-22 02:13:00,
2013-08-21 20:18:00,74.8,32.3,24.78,West,275,2.7,3.1,21,0.00,,---,0.00,VWS V14.01,2013-08-22 02:18:00,
2013-08-21 20:23:00,73.8,31.4,24.78,West,277,3.1,3.1,21,0.00,,---,0.00,VWS V14.01,2013-08-22 02:23:00,
2013-08-21 20:28:00,73.0,30.8,24.78,West,265,3.6,3.6,21,0.00,,---,0.00,VWS V14.01,2013-08-22 02:28:00,
2013-08-21 20:33:00,72.3,31.4,24.78,WSW,247,4.5,4.5,22,0.00,,---,0.00,VWS V14.01,2013-08-22 02:33:00,
2013-08-21 20:38:00,72.0,31.1,24.78,WSW,257,3.6,4.0,22,0.00,,---,0.00,VWS V14.01,2013-08-22 02:38:00,
2013-08-21 20:43:00,71.2,31.6,24.78,WNW,282,3.1,3.1,23,0.00,,---,0.00,VWS V14.01,2013-08-22 02:43:00,
2013-08-21 20:48:00,70.9,31.3,24.78,WSW,248,5.4,5.4,23,0.00,,---,0.00,VWS V14.01,2013-08-22 02:48:00,
2013-08-21 20:53:00,70.2,30.7,24.78,SSE,153,2.2,2.2,23,0.00,,---,0.00,VWS V14.01,2013-08-22 02:53:00,
2013-08-21 20:58:00,69.6,30.2,24.78,NNW,346,0.0,0.0,23,0.00,,---,0.00,VWS V14.01,2013-08-22 02:58:00,
2013-08-21 21:03:00,68.9,29.6,24.78,NW,309,0.0,0.0,23,0.00,,---,0.00,VWS V14.01,2013-08-22 03:03:00,
2013-08-21 21:08:00,68.7,29.5,24.78,NW,308,0.0,0.0,23,0.00,,---,0.00,VWS V14.01,2013-08-22 03:08:00,
2013-08-21 21:13:00,68.5,30.4,24.81,NW,310,0.0,0.0,24,0.00,,---,0.00,VWS V14.01,2013-08-22 03:13:00,
2013-08-21 21:18:00,68.0,29.9,24.81,NW,310,0.0,0.0,24,0.00,,---,0.00,VWS V14.01,2013-08-22 03:18:00,
2013-08-21 21:23:00,67.8,29.7,24.81,WSW,246,3.6,4.9,24,0.00,,---,0.00,VWS V14.01,2013-08-22 03:23:00,
2013-08-21 21:28:00,67.5,29.4,24.81,WSW,246,2.2,2.2,24,0.00,,---,0.00,VWS V14.01,2013-08-22 03:28:00,
2013-08-21 21:33:00,67.3,29.3,24.81,WNW,302,2.7,2.7,24,0.00,,---,0.00,VWS V14.01,2013-08-22 03:33:00,
2013-08-21 21:38:00,67.1,29.1,24.81,WSW,254,2.7,2.7,24,0.00,,---,0.00,VWS V14.01,2013-08-22 03:38:00,
2013-08-21 21:43:00,67.1,29.1,24.81,West,261,3.6,3.6,24,0.00,,---,0.00,VWS V14.01,2013-08-22 03:43:00,
2013-08-21 21:48:00,67.1,29.1,24.81,NW,305,4.0,5.4,24,0.00,,---,0.00,VWS V14.01,2013-08-22 03:48:00,
2013-08-21 21:53:00,66.6,29.7,24.81,WNW,297,3.6,5.4,25,0.00,,---,0.00,VWS V14.01,2013-08-22 03:53:00,
2013-08-21 21:58:00,65.8,30.0,24.81,SW,235,5.4,7.6,26,0.00,,---,0.00,VWS V14.01,2013-08-22 03:58:00,
2013-08-21 22:01:00,65.7,29.9,24.81,SW,234,5.8,5.8,26,0.00,,---,0.00,VWS V14.01,2013-08-22 04:01:00,
2013-08-21 22:06:00,65.1,29.4,24.81,SW,236,5.8,5.8,26,0.00,,---,0.00,VWS V14.01,2013-08-22 04:06:00,
2013-08-21 22:11:00,64.8,29.1,24.81,WSW,253,3.6,3.6,26,0.00,,---,0.00,VWS V14.01,2013-08-22 04:11:00,
2013-08-21 22:16:00,64.8,29.1,24.81,WSW,244,4.9,6.3,26,0.00,,---,0.00,VWS V14.01,2013-08-22 04:16:00,
2013-08-21 22:21:00,64.9,29.3,24.81,West,264,5.8,5.8,26,0.00,,---,0.00,VWS V14.01,2013-08-22 04:21:00,
2013-08-21 22:26:00,65.5,29.7,24.81,WSW,253,4.0,4.0,26,0.00,,---,0.00,VWS V14.01,2013-08-22 04:26:00,
2013-08-21 22:31:00,65.7,28.9,24.81,West,280,6.3,6.3,25,0.00,,---,0.00,VWS V14.01,2013-08-22 04:31:00,
2013-08-21 22:36:00,65.5,29.7,24.81,WSW,256,4.9,5.8,26,0.00,,---,0.00,VWS V14.01,2013-08-22 04:36:00,
2013-08-21 22:41:00,65.1,29.4,24.81,WSW,254,7.6,7.6,26,0.00,,---,0.00,VWS V14.01,2013-08-22 04:41:00,
2013-08-21 22:46:00,64.6,29.0,24.81,West,264,6.3,6.3,26,0.00,,---,0.00,VWS V14.01,2013-08-22 04:46:00,
2013-08-21 22:51:00,63.7,29.1,24.81,West,261,4.0,6.3,27,0.00,,---,0.00,VWS V14.01,2013-08-22 04:51:00,
2013-08-21 22:56:00,63.1,28.6,24.81,WNW,295,5.8,5.8,27,0.00,,---,0.00,VWS V14.01,2013-08-22 04:56:00,
2013-08-21 23:01:00,62.4,28.9,24.81,West,275,5.4,7.6,28,0.00,,---,0.00,VWS V14.01,2013-08-22 05:01:00,
2013-08-21 23:06:00,62.1,28.6,24.81,WSW,246,5.4,5.4,28,0.00,,---,0.00,VWS V14.01,2013-08-22 05:06:00,
2013-08-21 23:11:00,62.1,28.6,24.81,SW,220,5.4,8.1,28,0.00,,---,0.00,VWS V14.01,2013-08-22 05:11:00,
2013-08-21 23:16:00,62.2,28.8,24.81,SW,234,8.7,8.7,28,0.00,,---,0.00,VWS V14.01,2013-08-22 05:16:00,
2013-08-21 23:21:00,62.6,29.1,24.81,West,265,8.3,8.3,28,0.00,,---,0.00,VWS V14.01,2013-08-22 05:21:00,
2013-08-21 23:26:00,62.8,29.2,24.81,West,265,5.4,5.8,28,0.00,,---,0.00,VWS V14.01,2013-08-22 05:26:00,
2013-08-21 23:31:00,62.6,28.2,24.81,West,278,6.3,7.2,27,0.00,,---,0.00,VWS V14.01,2013-08-22 05:31:00,
2013-08-21 23:36:00,62.4,28.9,24.81,WSW,255,5.8,8.1,28,0.00,,---,0.00,VWS V14.01,2013-08-22 05:36:00,
2013-08-21 23:41:00,62.1,28.6,24.81,SW,224,8.3,8.3,28,0.00,,---,0.00,VWS V14.01,2013-08-22 05:41:00,
2013-08-21 23:46:00,61.9,28.4,24.81,SW,215,5.4,6.3,28,0.00,,---,0.00,VWS V14.01,2013-08-22 05:46:00,
2013-08-21 23:51:00,61.9,28.4,24.81,SW,231,8.3,8.3,28,0.00,,---,0.00,VWS V14.01,2013-08-22 05:51:00,
2013-08-21 23:56:00,61.9,28.4,24.83,WSW,241,8.1,8.1,28,0.00,,---,0.00,VWS V14.01,2013-08-22 05:56:00,